Maine, New York
Current Conditions -  °F | °C
As of 9:53 PM on Wednesday 26 Nov 2014 (Local Time) from KBGM Reporting Station
Light Snow Light Snow  
Wind Chill: 36°   Ceiling: 500
Heat Index: 41°   Visibility: 1.5mi
Dew Point: 27°   Wind: 8mph
Humidity: 57%   Direction: 340°NNW
Pressure: 29.89"   Gusts: NA
Location:  42.19°N, 76.06°W
Report Text: KBGM 270253Z 34007KT 1 1/2SM -SN BKN005 OVC034 05/M03 A2989 RMK AO2 TWR VIS 2 VIS 1/2V2 1/2 SNB0156 SLP134 P0001 60003 T00501028 58010 $
Loading
Personal Weather Stations






























Interactive Weather Map New forecast layout! Learn more

10-Day Weather Forecast

Advertisements
Track Severe Weather on mobile